Time;durP1;ratioP1;P1;durP2;ratioP2;P2;SDS_P1;SDS_P2;PMS_P1;PMS_P2;Temp;Humidity;BMP_temperature;BMP_pressure;BME280_temperature;BME280_humidity;BME280_pressure;Samples;Min_cycle;Max_cycle;Signal;HPM_P1;HPM_P2
2023/04/26 00:00:45;;;;;;;;;;;;;;;-142.75;100.00;78314.75;5007974;28;19913;-67
2023/04/26 00:03:12;;;;;;;;;;;;;;;-142.75;100.00;78326.56;5007609;28;19960;-68
2023/04/26 00:05:37;;;;;;;;;;;;;;;-142.75;100.00;78332.47;5007886;28;19921;-67
2023/04/26 00:08:03;;;;;;;;;;;;;;;-142.75;100.00;78320.66;5008466;28;20298;-67
2023/04/26 00:10:28;;;;;;;;;;;;;;;-142.75;100.00;78306.88;5007601;28;19921;-67
2023/04/26 00:12:53;;;;;;;;;;;;;;;-142.75;100.00;78302.94;5022581;28;19913;-67
2023/04/26 00:15:18;;;;;;;;;;;;;;;-142.75;100.00;78297.00;5007564;28;20366;-67
2023/04/26 00:17:44;;;;;;;;;;;;;;;-142.75;100.00;78287.16;5022903;28;20031;-67
2023/04/26 00:20:11;;;;;;;;;;;;;;;-142.75;100.00;78287.16;5007714;28;19917;-67
2023/04/26 00:22:37;;;;;;;;;;;;;;;-142.75;100.00;78299.00;5006251;28;20294;-67
2023/04/26 00:25:02;;;;;;;;;;;;;;;-142.75;100.00;78281.25;5007325;28;19913;-67
2023/04/26 00:27:27;;;;;;;;;;;;;;;-142.75;100.00;78306.88;5007493;28;19914;-67
2023/04/26 00:29:52;;;;;;;;;;;;;;;-142.75;100.00;78318.69;5007394;28;19921;-67
2023/04/26 00:32:17;;;;;;;;;;;;;;;-142.75;100.00;78320.66;5007251;28;19936;-67
2023/04/26 00:34:43;;;;;;;;;;;;;;;-142.75;100.00;78322.63;5006930;28;19920;-67
2023/04/26 00:37:08;;;;;;;;;;;;;;;-142.75;100.00;78330.50;5007292;28;20267;-67
2023/04/26 00:39:33;;;;;;;;;;;;;;;-142.75;100.00;78310.81;5007728;28;19913;-67
2023/04/26 00:41:58;;;;;;;;;;;;;;;-142.75;100.00;78316.72;5007168;28;19914;-67
2023/04/26 00:44:23;;;;;;;;;;;;;;;-142.75;100.00;78318.69;5007506;28;20182;-67
2023/04/26 00:46:50;;;;;;;;;;;;;;;-142.75;100.00;78318.69;5007301;28;19929;-67
2023/04/26 00:49:17;;;;;;;;;;;;;;;-142.75;100.00;78330.50;5006563;28;19917;-66
2023/04/26 00:51:43;;;;;;;;;;;;;;;-142.75;100.00;78328.53;5006981;28;20003;-67
2023/04/26 00:54:09;;;;;;;;;;;;;;;-142.75;100.00;78340.34;5006482;28;19913;-67
2023/04/26 00:56:35;;;;;;;;;;;;;;;-142.75;100.00;78338.38;5006882;28;20385;-67
2023/04/26 00:59:01;;;;;;;;;;;;;;;-142.75;100.00;78332.47;5007026;28;20337;-67
2023/04/26 01:01:27;;;;;;;;;;;;;;;-142.75;100.00;78332.47;4989194;28;19919;-67
2023/04/26 01:03:52;;;;;;;;;;;;;;;-142.75;100.00;78330.50;5006634;28;20289;-67
2023/04/26 01:06:17;;;;;;;;;;;;;;;-142.75;100.00;78334.44;5005699;28;21583;-67
2023/04/26 01:08:42;;;;;;;;;;;;;;;-142.75;100.00;78358.06;5006879;28;19913;-68
2023/04/26 01:11:08;;;;;;;;;;;;;;;-142.75;100.00;78354.13;5005388;28;19968;-67
2023/04/26 01:13:35;;;;;;;;;;;;;;;-142.75;100.00;78346.25;5006502;28;19913;-67
2023/04/26 01:16:01;;;;;;;;;;;;;;;-142.75;100.00;78358.06;5006893;28;19917;-66
2023/04/26 01:18:26;;;;;;;;;;;;;;;-142.75;100.00;78379.72;4989017;28;19925;-67
2023/04/26 01:20:52;;;;;;;;;;;;;;;-142.75;100.00;78379.72;5005153;28;19945;-66
2023/04/26 01:23:17;;;;;;;;;;;;;;;-142.75;100.00;78381.69;5004791;28;19914;-67
2023/04/26 01:25:43;;;;;;;;;;;;;;;-142.75;100.00;78411.25;5006389;28;20358;-67
2023/04/26 01:28:08;;;;;;;;;;;;;;;-142.75;100.00;78399.44;5006379;28;20316;-67
2023/04/26 01:30:33;;;;;;;;;;;;;;;-142.75;100.00;78393.50;5006569;28;19920;-67
2023/04/26 01:32:58;;;;;;;;;;;;;;;-142.75;100.00;78413.22;5006082;28;19921;-67
2023/04/26 01:35:23;;;;;;;;;;;;;;;-142.75;100.00;78403.38;5006309;28;19920;-67
2023/04/26 01:37:49;;;;;;;;;;;;;;;-142.75;100.00;78417.16;5006203;28;19932;-67
2023/04/26 01:40:14;;;;;;;;;;;;;;;-142.75;100.00;78393.50;5006229;28;20000;-67
2023/04/26 01:42:39;;;;;;;;;;;;;;;-142.75;100.00;78385.63;5006212;28;20317;-67
2023/04/26 01:45:05;;;;;;;;;;;;;;;-142.75;100.00;78405.34;5006186;28;19920;-66
2023/04/26 01:47:30;;;;;;;;;;;;;;;-142.75;100.00;78399.44;5006465;28;19921;-66
2023/04/26 01:49:56;;;;;;;;;;;;;;;-142.75;100.00;78399.44;4988825;28;19945;-67
2023/04/26 01:52:21;;;;;;;;;;;;;;;-142.75;100.00;78397.44;5006050;28;19913;-67
2023/04/26 01:54:46;;;;;;;;;;;;;;;-142.75;100.00;78401.38;5005858;28;19924;-67
2023/04/26 01:57:12;;;;;;;;;;;;;;;-142.75;100.00;78393.50;5006132;28;19913;-67
2023/04/26 01:59:37;;;;;;;;;;;;;;;-142.75;100.00;78389.56;5006117;28;19943;-66
2023/04/26 02:02:02;;;;;;;;;;;;;;;-142.75;100.00;78381.69;5010023;28;19940;-67
2023/04/26 02:04:27;;;;;;;;;;;;;;;-142.75;100.00;78379.72;5008297;28;19913;-67
2023/04/26 02:06:53;;;;;;;;;;;;;;;-142.75;100.00;78371.84;5010115;28;19952;-67
2023/04/26 02:09:18;;;;;;;;;;;;;;;-142.75;100.00;78383.66;5010362;28;19925;-67
2023/04/26 02:11:43;;;;;;;;;;;;;;;-142.75;100.00;78377.75;5009949;28;19936;-68
2023/04/26 02:14:08;;;;;;;;;;;;;;;-142.75;100.00;78409.28;5009562;28;19913;-67
2023/04/26 02:16:36;;;;;;;;;;;;;;;-142.75;100.00;78432.91;5010100;28;19921;-67
2023/04/26 02:19:04;;;;;;;;;;;;;;;-142.75;100.00;78436.84;5010170;28;19917;-67
2023/04/26 02:21:29;;;;;;;;;;;;;;;-142.75;100.00;78434.88;4992060;28;20016;-68
2023/04/26 02:23:55;;;;;;;;;;;;;;;-142.75;100.00;78401.38;5009287;28;20155;-67
2023/04/26 02:26:20;;;;;;;;;;;;;;;-142.75;100.00;78417.16;5009524;28;19924;-66
2023/04/26 02:28:45;;;;;;;;;;;;;;;-142.75;100.00;78417.16;5008287;28;19913;-67
2023/04/26 02:31:10;;;;;;;;;;;;;;;-142.75;100.00;78393.50;5009528;28;19921;-66
2023/04/26 02:33:36;;;;;;;;;;;;;;;-142.75;100.00;78381.69;5009384;28;20042;-66
2023/04/26 02:36:01;;;;;;;;;;;;;;;-142.75;100.00;78362.00;5009898;28;20003;-67
2023/04/26 02:38:27;;;;;;;;;;;;;;;-142.75;100.00;78360.03;5009754;28;19948;-67
2023/04/26 02:40:58;;;;;;;;;;;;;;;-142.75;100.00;78354.13;5009366;28;19914;-67
2023/04/26 02:43:24;;;;;;;;;;;;;;;-142.75;100.00;78348.22;5009019;28;19992;-68
2023/04/26 02:45:49;;;;;;;;;;;;;;;-142.75;100.00;78342.31;5009255;28;19917;-67
2023/04/26 02:48:14;;;;;;;;;;;;;;;-142.75;100.00;78350.19;5009320;28;19921;-67
2023/04/26 02:50:39;;;;;;;;;;;;;;;-142.75;100.00;78324.59;5009323;28;19917;-67
2023/04/26 02:53:05;;;;;;;;;;;;;;;-142.75;100.00;78318.69;5013792;28;20382;-67
2023/04/26 02:55:30;;;;;;;;;;;;;;;-142.75;100.00;78322.63;5011269;28;19917;-67
2023/04/26 02:57:55;;;;;;;;;;;;;;;-142.75;100.00;78322.63;5013439;28;19929;-67
2023/04/26 03:00:21;;;;;;;;;;;;;;;-142.75;100.00;78322.63;5012786;28;19913;-67
2023/04/26 03:02:46;;;;;;;;;;;;;;;-142.75;100.00;78318.69;5009171;28;19919;-67
2023/04/26 03:05:12;;;;;;;;;;;;;;;-142.75;100.00;78316.72;5009090;28;19913;-67
2023/04/26 03:07:37;;;;;;;;;;;;;;;-142.75;100.00;78322.63;5008943;28;19971;-67
2023/04/26 03:10:03;;;;;;;;;;;;;;;-142.75;100.00;78318.69;5009648;28;20386;-66
2023/04/26 03:12:29;;;;;;;;;;;;;;;-142.75;100.00;78314.75;5007353;28;19914;-66
2023/04/26 03:14:54;;;;;;;;;;;;;;;-142.75;100.00;78312.78;5007984;28;20359;-66
2023/04/26 03:17:19;;;;;;;;;;;;;;;-142.75;100.00;78318.69;5007882;28;19917;-67
2023/04/26 03:19:45;;;;;;;;;;;;;;;-142.75;100.00;78320.66;5008174;28;20000;-67
2023/04/26 03:22:14;;;;;;;;;;;;;;;-142.75;100.00;78322.63;4990264;28;19920;-66
2023/04/26 03:24:40;;;;;;;;;;;;;;;-142.75;100.00;78310.81;5007598;28;19917;-67
2023/04/26 03:27:05;;;;;;;;;;;;;;;-142.75;100.00;78330.50;5006625;28;20591;-66
2023/04/26 03:29:30;;;;;;;;;;;;;;;-142.75;100.00;78320.66;5007889;28;19914;-67
2023/04/26 03:31:55;;;;;;;;;;;;;;;-142.75;100.00;78326.56;5007887;28;19920;-67
2023/04/26 03:34:20;;;;;;;;;;;;;;;-142.75;100.00;78306.88;5007607;28;19913;-67
2023/04/26 03:36:46;;;;;;;;;;;;;;;-142.75;100.00;78326.56;5007612;28;19917;-67
2023/04/26 03:39:11;;;;;;;;;;;;;;;-142.75;100.00;78338.38;5006747;28;19918;-67
2023/04/26 03:41:38;;;;;;;;;;;;;;;-142.75;100.00;78360.03;5007886;28;19913;-66
2023/04/26 03:44:03;;;;;;;;;;;;;;;-142.75;100.00;78352.16;5006171;28;19913;-67
2023/04/26 03:46:28;;;;;;;;;;;;;;;-142.75;100.00;78334.44;5007437;28;19921;-67
2023/04/26 03:48:54;;;;;;;;;;;;;;;-142.75;100.00;78318.69;5008018;28;20048;-67
2023/04/26 03:51:19;;;;;;;;;;;;;;;-142.75;100.00;78338.38;5009230;28;19928;-67
2023/04/26 03:53:47;;;;;;;;;;;;;;;-142.75;100.00;78338.38;5024424;28;19920;-67
2023/04/26 03:56:12;;;;;;;;;;;;;;;-142.75;100.00;78348.22;5009066;28;19959;-67
2023/04/26 03:58:37;;;;;;;;;;;;;;;-142.75;100.00;78334.44;5024481;28;19917;-67
2023/04/26 04:01:03;;;;;;;;;;;;;;;-142.75;100.00;78328.53;5025295;28;20302;-67
2023/04/26 04:03:29;;;;;;;;;;;;;;;-142.75;100.00;78326.56;5009402;28;19920;-66
2023/04/26 04:05:54;;;;;;;;;;;;;;;-142.75;100.00;78330.50;5009723;28;19933;-67
2023/04/26 04:08:19;;;;;;;;;;;;;;;-142.75;100.00;78318.69;5009948;28;20167;-67
2023/04/26 04:10:45;;;;;;;;;;;;;;;-142.75;100.00;78310.81;5009821;28;20279;-67
2023/04/26 04:13:10;;;;;;;;;;;;;;;-142.75;100.00;78310.81;5009297;28;19991;-67
2023/04/26 04:15:35;;;;;;;;;;;;;;;-142.75;100.00;78310.81;5009531;28;20401;-67
2023/04/26 04:18:00;;;;;;;;;;;;;;;-142.75;100.00;78310.81;5009698;28;20325;-67
2023/04/26 04:20:26;;;;;;;;;;;;;;;-142.75;100.00;78318.69;5021484;28;20397;-67
2023/04/26 04:22:51;;;;;;;;;;;;;;;-142.75;100.00;78316.72;5009455;28;19913;-67
2023/04/26 04:25:19;;;;;;;;;;;;;;;-142.75;100.00;78322.63;5008209;28;20275;-67
2023/04/26 04:27:45;;;;;;;;;;;;;;;-142.75;100.00;78352.16;5009324;28;19913;-67
2023/04/26 04:30:11;;;;;;;;;;;;;;;-142.75;100.00;78338.38;5009217;28;19960;-66
2023/04/26 04:32:36;;;;;;;;;;;;;;;-142.75;100.00;78336.41;5008972;28;19994;-67
2023/04/26 04:35:02;;;;;;;;;;;;;;;-142.75;100.00;78340.34;5024359;28;19913;-67
2023/04/26 04:37:32;;;;;;;;;;;;;;;-142.75;100.00;78322.63;5009111;28;19917;-67
2023/04/26 04:39:57;;;;;;;;;;;;;;;-142.75;100.00;78314.75;5009390;28;19961;-68
2023/04/26 04:42:23;;;;;;;;;;;;;;;-142.75;100.00;78310.81;5009168;28;20425;-67
2023/04/26 04:44:49;;;;;;;;;;;;;;;-142.75;100.00;78316.72;5008931;28;19955;-67
2023/04/26 04:47:14;;;;;;;;;;;;;;;-142.75;100.00;78312.78;5009087;28;21187;-67
2023/04/26 04:49:40;;;;;;;;;;;;;;;-142.75;100.00;78310.81;5008956;28;20012;-67
2023/04/26 04:52:06;;;;;;;;;;;;;;;-142.75;100.00;78295.06;5009135;28;19906;-67
2023/04/26 04:54:31;;;;;;;;;;;;;;;-142.75;100.00;78295.06;5008715;28;19914;-67
2023/04/26 04:56:56;;;;;;;;;;;;;;;-142.75;100.00;78281.25;5008943;28;20326;-67
2023/04/26 04:59:22;;;;;;;;;;;;;;;-142.75;100.00;78259.59;5008670;28;19917;-68
2023/04/26 05:01:47;;;;;;;;;;;;;;;-142.75;100.00;78257.63;5007652;28;20408;-67
2023/04/26 05:04:12;;;;;;;;;;;;;;;-142.75;100.00;78277.31;5008118;28;19928;-67
2023/04/26 05:06:37;;;;;;;;;;;;;;;-142.75;100.00;78281.25;5008875;28;19913;-67
2023/04/26 05:09:04;;;;;;;;;;;;;;;-142.75;100.00;78299.00;5008940;28;19960;-67
2023/04/26 05:11:29;;;;;;;;;;;;;;;-142.75;100.00;78291.09;5008870;28;20032;-67
2023/04/26 05:13:55;;;;;;;;;;;;;;;-142.75;100.00;78283.22;5008288;28;19996;-67
2023/04/26 05:16:20;;;;;;;;;;;;;;;-142.75;100.00;78275.34;5008466;28;19913;-67
2023/04/26 05:18:45;;;;;;;;;;;;;;;-142.75;100.00;78232.03;5008213;28;19956;-67
2023/04/26 05:21:11;;;;;;;;;;;;;;;-142.75;100.00;78220.22;5008492;28;19979;-68
2023/04/26 05:23:36;;;;;;;;;;;;;;;-142.75;100.00;78212.34;5008251;28;19913;-66
2023/04/26 05:26:03;;;;;;;;;;;;;;;-142.75;100.00;78192.66;5008945;28;19954;-67
2023/04/26 05:28:29;;;;;;;;;;;;;;;-142.75;100.00;78180.81;5008363;28;20394;-68
2023/04/26 05:30:54;;;;;;;;;;;;;;;-142.75;100.00;78165.06;5008400;28;19913;-67
2023/04/26 05:33:19;;;;;;;;;;;;;;;-142.75;100.00;78155.22;5007950;28;20418;-67
2023/04/26 05:35:45;;;;;;;;;;;;;;;-142.75;100.00;78125.69;5007980;28;19976;-67
2023/04/26 05:38:10;;;;;;;;;;;;;;;-142.75;100.00;78123.72;5008271;28;20012;-68
2023/04/26 05:40:36;;;;;;;;;;;;;;;-142.75;100.00;78106.00;5007054;28;19913;-67
2023/04/26 05:43:01;;;;;;;;;;;;;;;-142.75;100.00;78113.88;5008138;28;20004;-67
2023/04/26 05:45:27;;;;;;;;;;;;;;;-142.75;100.00;78119.78;5008108;28;20309;-67
2023/04/26 05:47:52;;;;;;;;;;;;;;;-142.75;100.00;78106.00;5007735;28;20295;-67
2023/04/26 05:50:17;;;;;;;;;;;;;;;-142.75;100.00;78096.16;5007708;28;20489;-67
2023/04/26 05:52:42;;;;;;;;;;;;;;;-142.75;100.00;78080.41;5007764;28;19925;-67
2023/04/26 05:55:08;;;;;;;;;;;;;;;-142.75;100.00;78070.56;5003198;28;19921;-66
2023/04/26 05:57:33;;;;;;;;;;;;;;;-142.75;100.00;78050.84;5008106;28;19921;-67
2023/04/26 05:59:58;;;;;;;;;;;;;;;-142.75;100.00;78039.03;5008178;28;19913;-67
2023/04/26 06:02:24;;;;;;;;;;;;;;;-142.75;100.00;78039.03;5007961;28;19949;-67
2023/04/26 06:04:50;;;;;;;;;;;;;;;-142.75;100.00;78031.16;5006204;28;19917;-66
2023/04/26 06:07:16;;;;;;;;;;;;;;;-142.75;100.00;78029.19;5007666;28;19919;-65
2023/04/26 06:09:41;;;;;;;;;;;;;;;-142.75;100.00;78027.22;5004738;28;20026;-65
2023/04/26 06:12:06;;;;;;;;;;;;;;;-142.75;100.00;78027.22;5015562;28;19924;-65
2023/04/26 06:14:32;;;;;;;;;;;;;;;-142.75;100.00;78007.53;5005263;28;19996;-66
2023/04/26 06:16:57;;;;;;;;;;;;;;;-142.75;100.00;78025.25;5007385;28;20370;-66
2023/04/26 06:19:22;;;;;;;;;;;;;;;-142.75;100.00;78027.22;5007613;28;20441;-66
2023/04/26 06:21:47;;;;;;;;;;;;;;;-142.75;100.00;78039.03;5007799;28;20406;-66
2023/04/26 06:24:13;;;;;;;;;;;;;;;-142.75;100.00;78041.00;5006815;28;19948;-66
2023/04/26 06:26:38;;;;;;;;;;;;;;;-142.75;100.00;78027.22;5008633;28;19913;-66
2023/04/26 06:29:03;;;;;;;;;;;;;;;-142.75;100.00;78029.19;5009354;28;19955;-66
2023/04/26 06:31:29;;;;;;;;;;;;;;;-142.75;100.00;78005.56;5000345;28;19921;-66
2023/04/26 06:33:54;;;;;;;;;;;;;;;-142.75;100.00;77991.78;5008702;28;19917;-66
2023/04/26 06:36:20;;;;;;;;;;;;;;;-142.75;100.00;78001.63;5010614;28;20394;-67
2023/04/26 06:38:45;;;;;;;;;;;;;;;-142.75;100.00;77995.72;5008404;28;19917;-66
2023/04/26 06:41:10;;;;;;;;;;;;;;;-142.75;100.00;78009.50;5007808;28;19920;-67
2023/04/26 06:43:36;;;;;;;;;;;;;;;-142.75;100.00;77991.78;5006686;28;19913;-66
2023/04/26 06:46:01;;;;;;;;;;;;;;;-142.75;100.00;77995.72;5007648;28;19959;-66
2023/04/26 06:48:26;;;;;;;;;;;;;;;-142.75;100.00;77993.75;5011233;28;20008;-67
2023/04/26 06:50:52;;;;;;;;;;;;;;;-142.75;100.00;77983.91;5011947;28;19913;-67
2023/04/26 06:53:17;;;;;;;;;;;;;;;-142.75;100.00;77976.03;5012447;28;19913;-67
2023/04/26 06:55:42;;;;;;;;;;;;;;;-142.75;100.00;77964.22;5012244;28;20378;-66
2023/04/26 06:58:07;;;;;;;;;;;;;;;-142.75;100.00;77936.66;5013438;28;19968;-66
2023/04/26 07:00:33;;;;;;;;;;;;;;;-142.75;100.00;77928.78;5013414;28;19951;-67
2023/04/26 07:02:58;;;;;;;;;;;;;;;-142.75;100.00;77928.78;5021395;28;19917;-67
2023/04/26 07:05:23;;;;;;;;;;;;;;;-142.75;95.94;77932.72;5024571;28;19912;-67
2023/04/26 07:07:49;;;;;;;;;;;;;;;-142.75;97.38;77934.69;5011100;28;19913;-67
2023/04/26 07:10:14;;;;;;;;;;;;;;;-142.75;94.68;77944.53;5022520;28;19914;-67
2023/04/26 07:12:39;;;;;;;;;;;;;;;-142.75;92.22;77964.22;5023929;28;20316;-66
2023/04/26 07:15:08;;;;;;;;;;;;;;;-142.75;93.20;77966.19;5021155;28;19914;-66
2023/04/26 07:17:33;;;;;;;;;;;;;;;-142.75;91.79;77952.41;5011996;28;19920;-67
2023/04/26 07:19:58;;;;;;;;;;;;;;;-142.75;95.25;77922.88;5005864;28;19913;-67
2023/04/26 07:22:23;;;;;;;;;;;;;;;-142.75;92.89;77915.00;5013113;28;19913;-67
2023/04/26 07:24:49;;;;;;;;;;;;;;;-142.75;92.29;77903.16;5012234;28;20161;-67
2023/04/26 07:27:14;;;;;;;;;;;;;;;-142.75;93.41;77887.41;5010431;28;19917;-66
2023/04/26 07:29:39;;;;;;;;;;;;;;;-142.75;94.75;77861.81;5010104;28;20310;-66
2023/04/26 07:32:05;;;;;;;;;;;;;;;-142.75;89.75;77840.16;5011017;28;19932;-67
2023/04/26 07:34:31;;;;;;;;;;;;;;;-142.75;86.83;77826.38;5011072;28;19913;-67
2023/04/26 07:36:56;;;;;;;;;;;;;;;-142.75;85.89;77814.56;5011945;28;19915;-67
2023/04/26 07:39:21;;;;;;;;;;;;;;;-142.75;85.70;77800.78;5012604;28;19917;-67
2023/04/26 07:41:46;;;;;;;;;;;;;;;-142.75;86.55;77804.72;5011386;28;20414;-67
2023/04/26 07:44:12;;;;;;;;;;;;;;;-142.75;85.89;77822.44;5020742;28;19913;-67
2023/04/26 07:46:37;;;;;;;;;;;;;;;-142.75;84.81;77798.81;5012365;28;20453;-67
2023/04/26 07:49:02;;;;;;;;;;;;;;;-142.75;83.89;77816.53;5011700;28;19952;-67
2023/04/26 07:51:27;;;;;;;;;;;;;;;-142.75;83.26;77808.66;5010143;28;19913;-67
2023/04/26 07:53:54;;;;;;;;;;;;;;;-142.75;86.11;77826.38;5009992;28;19979;-66
2023/04/26 07:56:20;;;;;;;;;;;;;;;-142.75;84.26;77869.69;5007991;28;19914;-68
2023/04/26 07:58:45;;;;;;;;;;;;;;;-142.75;83.75;77857.88;5010763;28;19923;-66
2023/04/26 08:01:13;;;;;;;;;;;;;;;-142.75;85.39;77877.56;5011578;28;20390;-66
2023/04/26 08:03:38;;;;;;;;;;;;;;;-142.75;86.83;77924.84;5008424;28;20541;-67
2023/04/26 08:06:07;;;;;;;;;;;;;;;-142.75;91.04;77903.16;5008295;28;20000;-65
2023/04/26 08:08:34;;;;;;;;;;;;;;;-142.75;93.93;77954.38;5008658;28;19921;-65
2023/04/26 08:10:59;;;;;;;;;;;;;;;-142.75;96.79;77942.56;5009746;28;19948;-66
2023/04/26 08:13:24;;;;;;;;;;;;;;;-142.75;98.97;77928.78;5008097;28;19964;-66
2023/04/26 08:15:49;;;;;;;;;;;;;;;-142.75;97.69;77956.34;5009093;28;19924;-66
2023/04/26 08:18:15;;;;;;;;;;;;;;;-142.75;97.69;77966.19;5009171;28;19918;-67
2023/04/26 08:20:40;;;;;;;;;;;;;;;-142.75;98.82;77948.47;5019719;28;19964;-67
2023/04/26 08:23:05;;;;;;;;;;;;;;;-142.75;95.08;77960.28;5008839;28;19913;-67
2023/04/26 08:25:33;;;;;;;;;;;;;;;-142.75;94.66;77952.41;5009066;28;19967;-66
2023/04/26 08:27:58;;;;;;;;;;;;;;;-142.75;94.11;77932.72;5017217;28;20020;-67
2023/04/26 08:30:23;;;;;;;;;;;;;;;-142.75;91.00;77928.78;5008701;28;20000;-66
2023/04/26 08:32:49;;;;;;;;;;;;;;;-142.75;89.42;77952.41;5008720;28;20080;-66
2023/04/26 08:35:14;;;;;;;;;;;;;;;-142.75;87.28;77932.72;5008719;28;19921;-67
2023/04/26 08:37:39;;;;;;;;;;;;;;;-142.75;86.67;77916.97;5008947;28;20064;-67
2023/04/26 08:40:12;;;;;;;;;;;;;;;-142.75;85.29;77938.63;5023353;28;19963;-66
2023/04/26 08:42:41;;;;;;;;;;;;;;;-142.75;86.08;77920.91;5008600;28;19979;-66
2023/04/26 08:45:07;;;;;;;;;;;;;;;-142.75;84.69;77907.09;5008486;28;19917;-66
2023/04/26 08:47:51;;;;;;;;;;;;;;;-142.75;84.69;77897.25;5009165;28;19920;-66
2023/04/26 08:50:20;;;;;;;;;;;;;;;-142.75;84.42;77897.25;5008367;28;19913;-66
2023/04/26 08:52:46;;;;;;;;;;;;;;;-142.75;85.83;77879.53;5008767;28;19913;-66
2023/04/26 08:55:13;;;;;;;;;;;;;;;-142.75;85.38;77885.44;5008168;28;20474;-66
2023/04/26 08:57:39;;;;;;;;;;;;;;;-142.75;86.25;77879.53;5008365;28;20398;-66
2023/04/26 09:00:07;;;;;;;;;;;;;;;-142.75;84.01;77915.00;5008343;28;20004;-66
2023/04/26 09:02:33;;;;;;;;;;;;;;;-142.75;85.96;77871.66;5008155;28;19921;-67
2023/04/26 09:04:58;;;;;;;;;;;;;;;-142.75;84.10;77873.63;5008435;28;19913;-66
2023/04/26 09:07:29;;;;;;;;;;;;;;;-142.75;83.47;77877.56;5008030;28;19930;-67
2023/04/26 09:09:56;;;;;;;;;;;;;;;-142.75;82.61;77877.56;5007522;28;19921;-66
2023/04/26 09:12:21;;;;;;;;;;;;;;;-142.75;82.66;77877.56;5007959;28;20377;-66
2023/04/26 09:14:47;;;;;;;;;;;;;;;-142.75;84.49;77869.69;5007643;28;19996;-67
2023/04/26 09:17:29;;;;;;;;;;;;;;;-142.75;84.69;77865.75;5008168;28;19925;-67
2023/04/26 09:19:55;;;;;;;;;;;;;;;-142.75;84.95;77891.34;5007743;28;19932;-67
2023/04/26 09:22:27;;;;;;;;;;;;;;;-142.75;87.28;77907.09;5008282;28;19917;-67
2023/04/26 09:24:52;;;;;;;;;;;;;;;-142.75;86.04;77897.25;5007764;28;19921;-67
2023/04/26 09:27:18;;;;;;;;;;;;;;;-142.75;88.17;77903.16;5008307;28;19913;-67
2023/04/26 09:29:56;;;;;;;;;;;;;;;-142.75;87.44;77885.44;5023381;28;19976;-67
2023/04/26 09:32:21;;;;;;;;;;;;;;;-142.75;87.25;77893.31;5007443;28;19999;-67
2023/04/26 09:34:47;;;;;;;;;;;;;;;-142.75;85.55;77885.44;5007612;28;20005;-67
2023/04/26 09:37:12;;;;;;;;;;;;;;;-142.75;85.70;77857.88;5016297;28;19940;-67
2023/04/26 09:39:39;;;;;;;;;;;;;;;-142.75;85.10;77859.84;5007736;28;19964;-67
2023/04/26 09:42:05;;;;;;;;;;;;;;;-142.75;85.89;77840.16;5007998;28;19919;-67
2023/04/26 09:44:31;;;;;;;;;;;;;;;-142.75;84.91;77853.94;5019615;28;19917;-67
2023/04/26 09:47:02;;;;;;;;;;;;;;;-142.75;84.50;77824.41;5005299;28;19920;-67
2023/04/26 09:49:28;;;;;;;;;;;;;;;-142.75;83.04;77806.69;5002976;28;19917;-67
2023/04/26 09:52:04;;;;;;;;;;;;;;;-142.75;80.94;77792.91;4996730;28;19921;-67
2023/04/26 09:54:39;;;;;;;;;;;;;;;-142.75;81.05;77783.06;5005042;28;19959;-67
2023/04/26 09:57:04;;;;;;;;;;;;;;;-142.75;79.56;77771.25;5007394;28;19967;-67
2023/04/26 09:59:42;;;;;;;;;;;;;;;-142.75;78.90;77739.75;5007759;28;19921;-67
2023/04/26 10:02:16;;;;;;;;;;;;;;;-142.75;82.08;77763.38;5007732;28;20424;-67
2023/04/26 10:04:43;;;;;;;;;;;;;;;-142.75;84.72;77775.19;5021826;28;20371;-66
2023/04/26 10:07:08;;;;;;;;;;;;;;;-142.75;85.90;77798.81;5008141;28;19913;-66
2023/04/26 10:09:34;;;;;;;;;;;;;;;-142.75;86.98;77846.06;5007961;28;19913;-65
2023/04/26 10:12:00;;;;;;;;;;;;;;;-142.75;86.67;77834.25;5008218;28;19920;-68
2023/04/26 10:14:26;;;;;;;;;;;;;;;-142.75;86.92;77834.25;5007220;28;19940;-66
2023/04/26 10:16:53;;;;;;;;;;;;;;;-142.75;86.82;77865.75;5007085;28;19936;-66
2023/04/26 10:19:19;;;;;;;;;;;;;;;-142.75;88.57;77857.88;5005980;28;19918;-66
2023/04/26 10:21:45;;;;;;;;;;;;;;;-142.75;88.31;77857.88;5006312;28;19914;-66
2023/04/26 10:24:11;;;;;;;;;;;;;;;-142.75;85.88;77865.75;5024766;28;19920;-65
2023/04/26 10:26:46;;;;;;;;;;;;;;;-142.75;88.21;77853.94;5010028;28;19913;-65
2023/04/26 10:29:11;;;;;;;;;;;;;;;-142.75;88.92;77826.38;5009789;28;20008;-66
2023/04/26 10:31:55;;;;;;;;;;;;;;;-142.75;88.02;77822.44;5025302;28;20003;-66
2023/04/26 10:34:21;;;;;;;;;;;;;;;-142.75;85.87;77832.28;5026497;28;20349;-66
2023/04/26 10:37:25;;;;;;;;;;;;;;;-142.75;85.35;77820.47;5011520;28;19919;-66
2023/04/26 10:39:50;;;;;;;;;;;;;;;-142.75;85.53;77796.84;4950515;29;19973;-66
2023/04/26 10:42:21;;;;;;;;;;;;;;;-142.75;82.99;77787.00;4950440;29;19914;-66
2023/04/26 10:44:47;;;;;;;;;;;;;;;-142.75;83.85;77822.44;4980298;28;20562;-66
2023/04/26 10:47:41;;;;;;;;;;;;;;;-142.75;81.93;77810.63;5010329;28;19913;-65
2023/04/26 10:50:08;;;;;;;;;;;;;;;-142.75;83.25;77810.63;4989212;28;20449;-65
2023/04/26 10:52:34;;;;;;;;;;;;;;;-142.75;84.02;77767.31;5009022;28;19963;-65
2023/04/26 10:54:59;;;;;;;;;;;;;;;-142.75;83.47;77769.28;5003931;28;19967;-65
2023/04/26 10:57:44;;;;;;;;;;;;;;;-142.75;82.33;77716.09;5010461;28;19913;-66
2023/04/26 11:00:12;;;;;;;;;;;;;;;-142.75;82.55;77684.59;5010460;28;19925;-65
2023/04/26 11:03:03;;;;;;;;;;;;;;;-142.75;80.82;77617.66;5010073;28;20023;-64
2023/04/26 11:05:33;;;;;;;;;;;;;;;-142.75;78.48;77625.53;5005342;28;19959;-66
2023/04/26 11:08:14;;;;;;;;;;;;;;;-142.75;78.33;77576.31;5010477;28;19921;-66
2023/04/26 11:10:40;;;;;;;;;;;;;;;-142.75;77.24;77538.91;5010010;28;19913;-66
2023/04/26 11:13:05;;;;;;;;;;;;;;;-142.75;75.59;77487.72;5010092;28;20008;-65
2023/04/26 11:15:31;;;;;;;;;;;;;;;-142.75;73.78;77428.63;5010361;28;20449;-66
2023/04/26 11:17:56;;;;;;;;;;;;;;;-142.75;72.67;77379.41;5010671;28;19917;-66
2023/04/26 11:20:21;;;;;;;;;;;;;;;-142.75;71.82;77371.53;5008689;28;20394;-66
2023/04/26 11:22:47;;;;;;;;;;;;;;;-142.75;71.64;77288.84;5009677;28;20008;-66
2023/04/26 11:25:12;;;;;;;;;;;;;;;-142.75;67.50;77259.31;5010230;28;20406;-65
2023/04/26 11:27:37;;;;;;;;;;;;;;;-142.75;64.47;77290.81;5009955;28;19917;-66
2023/04/26 11:30:06;;;;;;;;;;;;;;;-142.75;65.82;77290.81;5010164;28;20375;-65
2023/04/26 11:32:32;;;;;;;;;;;;;;;-142.75;66.36;77300.66;5009884;28;19913;-65
2023/04/26 11:34:59;;;;;;;;;;;;;;;-142.75;61.76;77353.81;5009268;28;19934;-66
2023/04/26 11:37:24;;;;;;;;;;;;;;;-142.75;65.37;77294.75;5010293;28;20274;-65
2023/04/26 11:39:50;;;;;;;;;;;;;;;-142.75;62.33;77282.94;5009784;28;19928;-65
2023/04/26 11:42:15;;;;;;;;;;;;;;;-142.75;62.31;77239.63;5009763;28;20090;-65
2023/04/26 11:44:40;;;;;;;;;;;;;;;-142.75;60.04;77216.00;5009590;28;19920;-65
2023/04/26 11:47:06;;;;;;;;;;;;;;;-142.75;62.27;77275.06;5009934;28;19920;-67
2023/04/26 11:49:32;;;;;;;;;;;;;;;-142.75;62.88;77280.97;5009705;28;19937;-66
2023/04/26 11:51:57;;;;;;;;;;;;;;;-142.75;64.07;77338.06;5009742;28;19913;-66
2023/04/26 11:54:26;;;;;;;;;;;;;;;-142.75;62.27;77349.88;5009213;28;19920;-66
2023/04/26 11:56:52;;;;;;;;;;;;;;;-142.75;64.75;77357.75;5009651;28;20091;-66
2023/04/26 11:59:22;;;;;;;;;;;;;;;-142.75;65.87;77422.72;5009425;28;20049;-66
2023/04/26 12:01:50;;;;;;;;;;;;;;;-142.75;66.29;77450.28;5008355;28;19920;-66
2023/04/26 12:04:15;;;;;;;;;;;;;;;-142.75;67.75;77475.91;5008721;28;19913;-65
2023/04/26 12:06:41;;;;;;;;;;;;;;;-142.75;67.19;77505.44;5009566;28;20404;-66
2023/04/26 12:09:10;;;;;;;;;;;;;;;-142.75;69.89;77517.25;5008459;28;19929;-65
2023/04/26 12:11:35;;;;;;;;;;;;;;;-142.75;70.36;77534.97;5009224;28;19919;-66
2023/04/26 12:14:01;;;;;;;;;;;;;;;-142.75;70.34;77525.13;5009321;28;19913;-65
2023/04/26 12:16:26;;;;;;;;;;;;;;;-142.75;69.58;77536.94;5009327;28;19920;-65